createdAt,value
2023-02-22T00:00:43.670Z,39.08
2023-02-22T00:03:15.291Z,38.95
2023-02-22T00:05:46.425Z,38.51
2023-02-22T00:08:16.006Z,38.49
2023-02-22T00:10:44.345Z,38.68
2023-02-22T00:13:13.473Z,38.99
2023-02-22T00:15:45.232Z,39.22
2023-02-22T00:18:13.439Z,39.59
2023-02-22T00:20:40.665Z,39.30
2023-02-22T00:23:09.416Z,39.16
2023-02-22T00:25:36.169Z,39.08
2023-02-22T00:28:04.627Z,39.13
2023-02-22T00:30:33.211Z,39.09
2023-02-22T00:33:02.989Z,39.01
2023-02-22T00:35:30.222Z,39.08
2023-02-22T00:38:01.096Z,38.83
2023-02-22T00:40:32.728Z,38.88
2023-02-22T00:43:04.020Z,38.75
2023-02-22T00:45:32.563Z,38.65
2023-02-22T00:47:59.816Z,38.79
2023-02-22T00:50:28.848Z,38.57
2023-02-22T00:52:56.173Z,38.82
2023-02-22T00:55:28.020Z,38.72
2023-02-22T00:57:55.192Z,38.40
2023-02-22T01:00:31.344Z,38.37
2023-02-22T01:02:58.484Z,38.37
2023-02-22T01:05:27.035Z,37.78
2023-02-22T01:07:55.500Z,37.71
2023-02-22T01:10:24.237Z,37.58
2023-02-22T01:12:54.898Z,37.92
2023-02-22T01:15:22.738Z,37.98
2023-02-22T01:17:50.924Z,37.92
2023-02-22T01:20:18.086Z,37.80
2023-02-22T01:22:46.525Z,37.52
2023-02-22T01:25:21.770Z,37.32
2023-02-22T01:27:49.593Z,37.22
2023-02-22T01:30:19.407Z,37.29
2023-02-22T01:32:46.246Z,37.28
2023-02-22T01:35:17.889Z,37.18
2023-02-22T01:37:45.224Z,36.94
2023-02-22T01:40:23.231Z,37.04
2023-02-22T01:42:54.501Z,36.68
2023-02-22T01:45:31.885Z,36.87
2023-02-22T01:48:16.123Z,36.87
2023-02-22T01:50:59.039Z,36.25
2023-02-22T01:53:37.296Z,36.41
2023-02-22T01:56:04.649Z,36.74
2023-02-22T01:58:33.054Z,37.04
2023-02-22T02:01:00.665Z,36.58
2023-02-22T02:03:29.334Z,35.77
2023-02-22T02:05:58.068Z,35.24
2023-02-22T02:08:53.453Z,35.10
2023-02-22T02:11:24.093Z,34.98
2023-02-22T02:13:56.184Z,35.35
2023-02-22T02:16:24.467Z,35.15
2023-02-22T02:18:51.622Z,34.78
2023-02-22T02:21:18.651Z,34.39
2023-02-22T02:23:58.887Z,34.32
2023-02-22T02:26:34.434Z,34.26
2023-02-22T02:29:33.047Z,34.35
2023-02-22T02:32:08.908Z,34.00
2023-02-22T02:35:03.234Z,34.06
2023-02-22T02:38:07.950Z,34.19
2023-02-22T02:40:40.487Z,33.90
2023-02-22T02:43:30.206Z,34.01
2023-02-22T02:46:03.805Z,34.21
2023-02-22T02:48:30.803Z,34.15
2023-02-22T02:50:58.403Z,34.27
2023-02-22T02:53:37.017Z,34.32
2023-02-22T02:56:04.156Z,34.14
2023-02-22T02:58:31.064Z,34.06
2023-02-22T03:00:59.703Z,33.95
2023-02-22T03:03:36.958Z,34.11
2023-02-22T03:06:41.585Z,34.06
2023-02-22T03:09:14.125Z,34.24
2023-02-22T03:12:01.599Z,34.22
2023-02-22T03:14:40.064Z,33.92
2023-02-22T03:17:11.697Z,34.22
2023-02-22T03:19:51.457Z,34.32
2023-02-22T03:22:25.534Z,34.40
2023-02-22T03:25:18.842Z,34.45
2023-02-22T03:27:52.761Z,34.33
2023-02-22T03:30:23.497Z,34.46
2023-02-22T03:32:54.042Z,34.31
2023-02-22T03:35:23.451Z,34.35
2023-02-22T03:37:54.328Z,34.54
2023-02-22T03:40:26.367Z,34.33
2023-02-22T03:43:16.821Z,34.28
2023-02-22T03:45:45.243Z,34.26
2023-02-22T03:49:29.982Z,36.38
2023-02-22T03:51:58.308Z,34.63
2023-02-22T03:54:27.612Z,34.49
2023-02-22T03:57:07.983Z,34.42
2023-02-22T03:59:39.227Z,34.48
2023-02-22T04:02:07.698Z,34.47
2023-02-22T04:04:36.127Z,34.31
2023-02-22T04:07:04.822Z,34.28
2023-02-22T04:09:37.996Z,34.45
2023-02-22T04:12:06.965Z,34.41
2023-02-22T04:14:50.081Z,34.14
2023-02-22T04:17:18.421Z,34.00
2023-02-22T04:19:46.553Z,34.32
2023-02-22T04:22:15.629Z,34.46
2023-02-22T04:24:45.507Z,34.36
2023-02-22T04:27:13.598Z,34.62
2023-02-22T04:29:43.127Z,34.55
2023-02-22T04:32:13.639Z,34.50
2023-02-22T04:34:43.292Z,34.64
2023-02-22T04:37:12.575Z,34.87
2023-02-22T04:39:41.248Z,35.07
2023-02-22T04:42:09.534Z,35.14
2023-02-22T04:44:38.097Z,35.46
2023-02-22T04:47:06.643Z,35.16
2023-02-22T04:49:36.835Z,35.61
2023-02-22T04:52:06.328Z,35.79
2023-02-22T04:54:39.654Z,36.16
2023-02-22T04:57:08.013Z,36.18
2023-02-22T04:59:36.179Z,36.29
2023-02-22T05:02:04.565Z,36.14
2023-02-22T05:04:34.706Z,36.34
2023-02-22T05:07:02.904Z,36.71
2023-02-22T05:09:31.136Z,36.96
2023-02-22T05:12:02.888Z,37.26
2023-02-22T05:14:31.132Z,37.70
2023-02-22T05:17:02.057Z,37.75
2023-02-22T05:19:30.699Z,37.68
2023-02-22T05:21:58.977Z,37.79
2023-02-22T05:24:27.695Z,37.92
2023-02-22T05:26:55.875Z,37.77
2023-02-22T05:29:24.437Z,37.93
2023-02-22T05:31:52.743Z,37.93
2023-02-22T05:34:21.382Z,37.77
2023-02-22T05:36:49.694Z,38.09
2023-02-22T05:39:21.312Z,38.12
2023-02-22T05:41:49.840Z,37.98
2023-02-22T05:44:17.999Z,37.90
2023-02-22T05:46:46.260Z,37.85
2023-02-22T05:49:15.050Z,37.73
2023-02-22T05:51:43.431Z,37.56
2023-02-22T05:54:11.604Z,37.20
2023-02-22T05:56:40.301Z,36.71
2023-02-22T05:59:08.677Z,36.36
2023-02-22T06:01:38.107Z,36.28
2023-02-22T06:04:06.662Z,36.32
2023-02-22T06:06:34.749Z,36.43
2023-02-22T06:09:02.837Z,36.60
2023-02-22T06:11:31.183Z,36.28
2023-02-22T06:13:59.772Z,36.40
2023-02-22T06:16:28.325Z,36.59
2023-02-22T06:18:56.730Z,36.83
2023-02-22T06:21:25.829Z,36.84
2023-02-22T06:23:54.017Z,36.77
2023-02-22T06:26:23.204Z,36.51
2023-02-22T06:28:51.733Z,36.43
2023-02-22T06:31:20.823Z,36.74
2023-02-22T06:33:49.238Z,36.88
2023-02-22T06:36:17.377Z,36.92
2023-02-22T06:38:45.610Z,37.02
2023-02-22T06:41:15.996Z,36.85
2023-02-22T06:43:48.053Z,36.92
2023-02-22T06:46:16.596Z,37.09
2023-02-22T06:48:44.709Z,37.42
2023-02-22T06:51:13.060Z,37.31
2023-02-22T06:53:41.530Z,37.52
2023-02-22T06:56:09.640Z,37.43
2023-02-22T06:58:38.925Z,37.06
2023-02-22T07:01:08.129Z,37.53
2023-02-22T07:03:36.554Z,37.50
2023-02-22T07:06:06.589Z,37.77
2023-02-22T07:08:39.419Z,37.80
2023-02-22T07:11:07.602Z,37.33
2023-02-22T07:13:37.731Z,36.91
2023-02-22T07:16:09.459Z,36.78
2023-02-22T07:18:38.768Z,36.37
2023-02-22T07:21:07.664Z,36.40
2023-02-22T07:23:36.537Z,36.42
2023-02-22T07:26:05.671Z,36.19
2023-02-22T07:28:33.816Z,35.99
2023-02-22T07:31:02.349Z,35.88
2023-02-22T07:33:30.994Z,35.52
2023-02-22T07:35:59.257Z,35.14
2023-02-22T07:38:27.333Z,34.89
2023-02-22T07:40:58.070Z,34.66
2023-02-22T07:43:27.516Z,34.45
2023-02-22T07:45:56.696Z,34.26
2023-02-22T07:48:27.149Z,34.44
2023-02-22T07:50:55.619Z,34.36
2023-02-22T07:53:30.429Z,34.21
2023-02-22T07:55:59.029Z,34.07
2023-02-22T07:58:28.623Z,33.89
2023-02-22T08:01:03.850Z,34.28
2023-02-22T08:03:36.661Z,34.59
2023-02-22T08:06:06.629Z,34.64
2023-02-22T08:08:35.106Z,35.00
2023-02-22T08:11:04.353Z,35.28
2023-02-22T08:13:33.219Z,34.98
2023-02-22T08:16:02.171Z,34.72
2023-02-22T08:18:30.846Z,34.85
2023-02-22T08:20:59.311Z,34.93
2023-02-22T08:23:27.921Z,34.91
2023-02-22T08:25:56.341Z,34.63
2023-02-22T08:28:24.844Z,34.39
2023-02-22T08:30:53.287Z,34.35
2023-02-22T08:33:25.999Z,34.13
2023-02-22T08:35:58.013Z,34.14
2023-02-22T08:38:28.616Z,33.98
2023-02-22T08:40:56.992Z,33.60
2023-02-22T08:43:25.741Z,33.67
2023-02-22T08:45:56.932Z,33.83
2023-02-22T08:48:25.805Z,33.89
2023-02-22T08:50:55.042Z,34.22
2023-02-22T08:53:23.529Z,34.45
2023-02-22T08:55:51.749Z,34.43
2023-02-22T08:58:20.254Z,34.74
2023-02-22T09:00:49.257Z,34.52
2023-02-22T09:03:17.532Z,33.98
2023-02-22T09:05:46.139Z,33.41
2023-02-22T09:08:16.164Z,32.61
2023-02-22T09:10:45.450Z,32.60
2023-02-22T09:13:17.017Z,32.90
2023-02-22T09:15:45.415Z,32.72
2023-02-22T09:18:14.792Z,32.60
2023-02-22T09:20:46.016Z,32.43
2023-02-22T09:23:14.695Z,32.45
2023-02-22T09:25:43.724Z,32.49
2023-02-22T09:28:11.965Z,32.22
2023-02-22T09:30:40.190Z,31.69
2023-02-22T09:33:10.660Z,31.56
2023-02-22T09:35:42.667Z,31.81
2023-02-22T09:38:11.860Z,32.03
2023-02-22T09:40:45.303Z,31.94
2023-02-22T09:43:33.928Z,31.79
2023-02-22T09:46:42.274Z,31.42
2023-02-22T09:49:14.012Z,31.21
2023-02-22T09:51:54.557Z,30.96
2023-02-22T09:54:25.569Z,30.71
2023-02-22T09:56:56.824Z,30.82
2023-02-22T09:59:28.912Z,30.99
2023-02-22T10:02:14.465Z,31.08
2023-02-22T10:04:45.417Z,31.06
2023-02-22T10:07:20.969Z,30.96
2023-02-22T10:09:49.126Z,30.77
2023-02-22T10:12:33.397Z,30.73
2023-02-22T10:15:07.605Z,30.58
2023-02-22T10:17:43.957Z,30.50
2023-02-22T10:20:38.407Z,30.61
2023-02-22T10:23:15.771Z,30.31
2023-02-22T10:25:45.274Z,30.02
2023-02-22T10:28:20.057Z,30.13
2023-02-22T10:30:56.239Z,29.88
2023-02-22T10:33:30.320Z,29.73
2023-02-22T10:36:02.853Z,29.76
2023-02-22T10:38:35.123Z,29.59
2023-02-22T10:41:23.387Z,29.70
2023-02-22T10:43:51.472Z,29.59
2023-02-22T10:46:21.300Z,29.36
2023-02-22T10:48:52.193Z,29.29
2023-02-22T10:51:20.474Z,29.01
2023-02-22T10:54:20.176Z,28.86
2023-02-22T10:56:50.551Z,28.75
2023-02-22T10:59:29.696Z,28.66
2023-02-22T11:01:57.718Z,28.44
2023-02-22T11:04:26.118Z,28.48
2023-02-22T11:07:08.737Z,28.38
2023-02-22T11:10:08.310Z,28.19
2023-02-22T11:12:47.932Z,27.69
2023-02-22T11:15:19.103Z,27.98
2023-02-22T11:17:50.472Z,27.76
2023-02-22T11:20:25.835Z,27.42
2023-02-22T11:22:55.916Z,26.93
2023-02-22T11:25:26.852Z,26.48
2023-02-22T11:27:54.963Z,26.51
2023-02-22T11:30:31.387Z,26.31
2023-02-22T11:33:12.820Z,26.19
2023-02-22T11:35:55.157Z,26.38
2023-02-22T11:38:23.790Z,26.83
2023-02-22T11:41:06.113Z,26.62
2023-02-22T11:43:35.518Z,27.15
2023-02-22T11:46:32.684Z,26.96
2023-02-22T11:49:07.051Z,26.92
2023-02-22T11:51:42.521Z,27.11
2023-02-22T11:54:33.083Z,27.41
2023-02-22T11:57:22.358Z,27.44
2023-02-22T12:00:24.972Z,27.79
2023-02-22T12:03:17.400Z,27.94
2023-02-22T12:06:07.139Z,28.02
2023-02-22T12:08:38.960Z,27.84
2023-02-22T12:11:18.398Z,27.98
2023-02-22T12:14:05.781Z,27.82
2023-02-22T12:16:40.082Z,27.67
2023-02-22T12:19:26.645Z,27.80
2023-02-22T12:21:58.514Z,27.74
2023-02-22T12:24:35.756Z,27.47
2023-02-22T12:27:28.488Z,27.15
2023-02-22T12:30:18.757Z,27.00
2023-02-22T12:33:08.427Z,27.01
2023-02-22T12:35:42.299Z,26.72
2023-02-22T12:38:15.058Z,26.74
2023-02-22T12:40:47.803Z,25.98
2023-02-22T12:43:39.033Z,25.98
2023-02-22T12:46:07.529Z,26.17
2023-02-22T12:48:42.228Z,26.38
2023-02-22T12:51:43.225Z,26.58
2023-02-22T12:54:33.671Z,26.36
2023-02-22T12:57:44.569Z,26.36
2023-02-22T13:00:17.222Z,26.61
2023-02-22T13:02:46.547Z,26.88
2023-02-22T13:05:17.980Z,26.96
2023-02-22T13:08:14.433Z,26.85
2023-02-22T13:10:52.335Z,26.91
2023-02-22T13:13:31.679Z,27.02
2023-02-22T13:16:22.613Z,27.03
2023-02-22T13:18:56.974Z,27.18
2023-02-22T13:21:30.169Z,27.18
2023-02-22T13:24:20.489Z,27.26
2023-02-22T13:27:11.427Z,27.20
2023-02-22T13:29:44.955Z,27.13
2023-02-22T13:32:31.857Z,27.30
2023-02-22T13:35:06.472Z,27.45
2023-02-22T13:37:46.340Z,27.49
2023-02-22T13:40:46.549Z,27.57
2023-02-22T13:43:37.285Z,27.46
2023-02-22T13:46:12.814Z,27.45
2023-02-22T13:48:46.919Z,27.53
2023-02-22T13:51:33.776Z,27.79
2023-02-22T13:54:13.097Z,27.78
2023-02-22T13:56:46.439Z,27.97
2023-02-22T13:59:36.410Z,28.08
2023-02-22T14:02:05.639Z,28.14
2023-02-22T14:04:39.928Z,28.23
2023-02-22T14:07:21.893Z,28.22
2023-02-22T14:09:56.187Z,28.19
2023-02-22T14:12:34.919Z,28.16
2023-02-22T14:15:30.870Z,28.20
2023-02-22T14:18:04.361Z,28.41
2023-02-22T14:20:38.339Z,28.66
2023-02-22T14:23:29.159Z,29.09
2023-02-22T14:25:58.198Z,29.16
2023-02-22T14:28:36.827Z,29.81
2023-02-22T14:31:38.127Z,29.61
2023-02-22T14:34:08.958Z,29.99
2023-02-22T14:36:41.996Z,30.13
2023-02-22T14:39:13.238Z,30.06
2023-02-22T14:41:46.140Z,30.22
2023-02-22T14:44:14.359Z,30.55
2023-02-22T14:46:42.799Z,30.89
2023-02-22T14:49:18.925Z,30.99
2023-02-22T14:51:59.876Z,31.07
2023-02-22T14:54:39.961Z,31.01
2023-02-22T14:57:18.743Z,30.96
2023-02-22T14:59:57.301Z,31.06
2023-02-22T15:02:26.248Z,31.09
2023-02-22T15:04:55.809Z,31.06
2023-02-22T15:07:30.033Z,31.26
2023-02-22T15:10:20.752Z,31.55
2023-02-22T15:13:09.146Z,31.63
2023-02-22T15:15:48.217Z,31.86
2023-02-22T15:18:35.644Z,31.89
2023-02-22T15:21:24.965Z,32.09
2023-02-22T15:23:59.442Z,32.13
2023-02-22T15:26:59.010Z,32.37
2023-02-22T15:29:39.587Z,32.70
2023-02-22T15:32:31.212Z,32.63
2023-02-22T15:35:25.866Z,32.77
2023-02-22T15:38:10.742Z,32.78
2023-02-22T15:40:43.153Z,32.64
2023-02-22T15:43:28.579Z,32.86
2023-02-22T15:45:57.407Z,32.68
2023-02-22T15:48:26.987Z,32.71
2023-02-22T15:51:10.651Z,32.55
2023-02-22T15:53:43.654Z,32.64
2023-02-22T15:56:16.515Z,32.60
2023-02-22T15:58:46.196Z,32.53
2023-02-22T16:01:17.905Z,32.42
2023-02-22T16:03:47.426Z,32.22
2023-02-22T16:07:59.118Z,34.29
2023-02-22T16:10:31.743Z,32.84
2023-02-22T16:13:32.801Z,32.76
2023-02-22T16:16:02.669Z,32.96
2023-02-22T16:18:37.039Z,33.10
2023-02-22T16:21:15.377Z,33.28
2023-02-22T16:23:46.552Z,33.27
2023-02-22T16:26:26.127Z,33.51
2023-02-22T16:29:05.324Z,33.59
2023-02-22T16:31:37.353Z,33.84
2023-02-22T16:34:06.139Z,34.18
2023-02-22T16:36:43.150Z,34.42
2023-02-22T16:39:21.990Z,34.60
2023-02-22T16:41:50.242Z,34.65
2023-02-22T16:44:17.069Z,34.66
2023-02-22T16:46:44.662Z,34.60
2023-02-22T16:49:12.307Z,34.45
2023-02-22T16:51:54.751Z,34.20
2023-02-22T16:54:25.325Z,34.35
2023-02-22T16:56:52.406Z,34.49
2023-02-22T16:59:19.838Z,34.56
2023-02-22T17:01:46.713Z,34.73
2023-02-22T17:04:19.478Z,34.70
2023-02-22T17:06:47.122Z,34.57
2023-02-22T17:09:15.062Z,34.56
2023-02-22T17:11:42.243Z,34.43
2023-02-22T17:14:09.760Z,34.42
2023-02-22T17:16:37.064Z,34.51
2023-02-22T17:26:45.337Z,34.03
2023-02-22T17:29:17.875Z,33.66
2023-02-22T17:31:46.393Z,33.80
2023-02-22T17:34:14.462Z,33.75
2023-02-22T17:36:42.815Z,33.62
2023-02-22T17:39:11.124Z,33.52
2023-02-22T17:41:40.671Z,33.51
2023-02-22T17:44:09.149Z,33.41
2023-02-22T17:46:40.872Z,33.65
2023-02-22T17:49:11.915Z,33.70
2023-02-22T17:51:49.721Z,33.97
2023-02-22T17:54:18.014Z,34.29
2023-02-22T17:56:46.783Z,34.23
2023-02-22T17:59:15.257Z,34.27
2023-02-22T18:01:44.180Z,34.31
2023-02-22T18:04:12.488Z,34.41
2023-02-22T18:06:41.375Z,34.57
2023-02-22T18:09:14.806Z,34.54
2023-02-22T18:11:43.730Z,34.71
2023-02-22T18:14:12.465Z,34.85
2023-02-22T18:16:47.052Z,35.01
2023-02-22T18:19:21.010Z,35.36
2023-02-22T18:21:50.338Z,35.48
2023-02-22T18:24:19.388Z,35.50
2023-02-22T18:26:47.783Z,35.56
2023-02-22T18:29:16.471Z,35.57
2023-02-22T18:31:45.642Z,35.78
2023-02-22T18:34:17.707Z,35.86
2023-02-22T18:36:46.148Z,36.04
2023-02-22T18:39:14.233Z,36.07
2023-02-22T18:41:42.711Z,36.45
2023-02-22T18:44:11.547Z,36.43
2023-02-22T18:46:40.452Z,36.52
2023-02-22T18:49:13.808Z,36.65
2023-02-22T18:51:43.762Z,36.68
2023-02-22T18:54:13.250Z,36.86
2023-02-22T18:56:41.485Z,36.67
2023-02-22T18:59:12.357Z,36.68
2023-02-22T19:01:48.979Z,36.75
2023-02-22T19:04:18.326Z,36.36
2023-02-22T19:06:48.730Z,36.65
2023-02-22T19:09:17.656Z,36.64
2023-02-22T19:11:46.820Z,36.59
2023-02-22T19:14:16.594Z,36.71
2023-02-22T19:16:46.670Z,36.90
2023-02-22T19:19:20.856Z,36.84
2023-02-22T19:21:49.354Z,36.79
2023-02-22T19:24:21.147Z,36.75
2023-02-22T19:26:57.284Z,36.82
2023-02-22T19:29:27.504Z,36.47
2023-02-22T19:31:55.918Z,36.40
2023-02-22T19:34:26.101Z,36.46
2023-02-22T19:37:41.222Z,36.61
2023-02-22T19:40:11.893Z,36.47
2023-02-22T19:42:40.623Z,36.48
2023-02-22T19:45:09.088Z,36.62
2023-02-22T19:47:39.000Z,36.51
2023-02-22T19:50:08.005Z,36.44
2023-02-22T19:52:39.021Z,36.41
2023-02-22T19:55:12.949Z,36.39
2023-02-22T19:57:41.452Z,36.39
2023-02-22T20:00:13.742Z,36.37
2023-02-22T20:02:44.848Z,36.30
2023-02-22T20:05:16.565Z,36.28
2023-02-22T20:07:46.604Z,36.36
2023-02-22T20:10:15.824Z,36.34
2023-02-22T20:12:43.995Z,36.61
2023-02-22T20:15:13.195Z,36.49
2023-02-22T20:17:42.167Z,36.68
2023-02-22T20:20:10.778Z,36.59
2023-02-22T20:22:40.998Z,36.73
2023-02-22T20:25:09.215Z,36.75
2023-02-22T20:27:38.380Z,36.63
2023-02-22T20:30:11.950Z,36.70
2023-02-22T20:32:42.984Z,36.64
2023-02-22T20:35:16.825Z,36.33
2023-02-22T20:37:45.626Z,36.36
2023-02-22T20:40:14.098Z,36.49
2023-02-22T20:42:44.965Z,36.43
2023-02-22T20:45:15.057Z,36.29
2023-02-22T20:47:43.570Z,35.82
2023-02-22T20:50:12.030Z,35.97
2023-02-22T20:52:41.715Z,35.36
2023-02-22T20:55:11.551Z,35.41
2023-02-22T20:57:39.838Z,36.06
2023-02-22T21:00:10.594Z,36.03
2023-02-22T21:02:38.744Z,36.37
2023-02-22T21:05:07.257Z,36.51
2023-02-22T21:07:36.005Z,36.85
2023-02-22T21:10:06.786Z,36.82
2023-02-22T21:12:35.483Z,36.37
2023-02-22T21:15:04.430Z,36.05
2023-02-22T21:17:32.819Z,35.96
2023-02-22T21:20:03.792Z,35.96
2023-02-22T21:22:33.895Z,36.00
2023-02-22T21:25:02.662Z,35.66
2023-02-22T21:27:32.691Z,35.53
2023-02-22T21:30:00.960Z,34.65
2023-02-22T21:32:29.460Z,34.09
2023-02-22T21:34:57.786Z,33.17
2023-02-22T21:37:26.199Z,33.04
2023-02-22T21:39:54.633Z,32.64
2023-02-22T21:42:23.166Z,32.94
2023-02-22T21:44:56.064Z,32.41
2023-02-22T21:47:24.138Z,32.80
2023-02-22T21:49:52.959Z,32.65
2023-02-22T21:52:21.108Z,32.88
2023-02-22T21:54:51.043Z,32.50
2023-02-22T21:57:19.397Z,31.84
2023-02-22T21:59:48.606Z,31.48
2023-02-22T22:02:17.000Z,31.60
2023-02-22T22:04:45.965Z,31.67
2023-02-22T22:07:17.934Z,31.55
2023-02-22T22:09:48.304Z,31.60
2023-02-22T22:12:17.973Z,31.36
2023-02-22T22:14:47.189Z,31.36
2023-02-22T22:17:18.916Z,31.39
2023-02-22T22:19:48.889Z,31.04
2023-02-22T22:22:17.163Z,31.09
2023-02-22T22:24:48.675Z,31.07
2023-02-22T22:27:17.131Z,30.89
2023-02-22T22:29:45.666Z,30.42
2023-02-22T22:32:16.403Z,30.52
2023-02-22T22:34:49.366Z,30.74
2023-02-22T22:37:17.950Z,30.85
2023-02-22T22:39:46.088Z,30.74
2023-02-22T22:42:14.559Z,30.69
2023-02-22T22:44:42.612Z,30.97
2023-02-22T22:47:14.030Z,30.95
2023-02-22T22:49:42.874Z,30.77
2023-02-22T22:52:16.378Z,30.82
2023-02-22T22:54:50.757Z,30.45
2023-02-22T22:57:18.894Z,30.32
2023-02-22T22:59:47.059Z,30.28
2023-02-22T23:02:19.858Z,30.37
2023-02-22T23:04:51.773Z,30.46
2023-02-22T23:07:19.831Z,30.11
2023-02-22T23:09:48.870Z,29.31
2023-02-22T23:12:17.935Z,28.91
2023-02-22T23:14:52.061Z,29.11
2023-02-22T23:17:41.261Z,28.55
2023-02-22T23:20:13.564Z,28.86
2023-02-22T23:22:47.350Z,28.86
2023-02-22T23:25:19.519Z,28.85
2023-02-22T23:27:48.237Z,29.03
2023-02-22T23:30:18.730Z,28.74
2023-02-22T23:32:47.808Z,28.53
2023-02-22T23:35:15.941Z,28.74
2023-02-22T23:37:46.330Z,28.67
2023-02-22T23:40:18.823Z,28.66
2023-02-22T23:42:51.452Z,28.48
2023-02-22T23:45:22.934Z,28.60
2023-02-22T23:47:54.999Z,28.80
2023-02-22T23:50:27.257Z,28.94
2023-02-22T23:52:59.085Z,28.87
2023-02-22T23:55:28.335Z,28.96
2023-02-22T23:57:59.706Z,28.87
